Time;durP1;ratioP1;P1;durP2;ratioP2;P2;SDS_P1;SDS_P2;PMS_P1;PMS_P2;Temp;Humidity;BMP_temperature;BMP_pressure;BME280_temperature;BME280_humidity;BME280_pressure;Samples;Min_cycle;Max_cycle;Signal;HPM_P1;HPM_P2
2023/12/18 00:02:07;;;;;;;;;25.75;22.25;;;;;4.70;100.00;103476.28;4996752;28;46059;-81
2023/12/18 00:04:42;;;;;;;;;29.25;21.75;;;;;4.62;100.00;103452.53;4999502;28;45524;-80
2023/12/18 00:07:53;;;;;;;;;27.25;24.00;;;;;4.50;100.00;103412.09;4999795;28;45590;-80
2023/12/18 00:10:30;;;;;;;;;30.25;27.75;;;;;4.82;100.00;103473.00;4999714;28;45433;-80
2023/12/18 00:13:24;;;;;;;;;27.75;21.50;;;;;4.66;100.00;103456.09;5001716;28;45397;-81
2023/12/18 00:16:15;;;;;;;;;;;;;;;;;;;;;
2023/12/18 00:19:06;;;;;;;;;23.50;22.50;;;;;4.72;100.00;103448.34;4992141;28;68337;-81
2023/12/18 00:21:57;;;;;;;;;24.75;20.75;;;;;4.42;100.00;103414.56;5013789;28;45614;-81
2023/12/18 00:28:05;;;;;;;;;23.75;18.75;;;;;4.98;100.00;103517.00;5001454;28;45458;-81
2023/12/18 00:30:31;;;;;;;;;24.50;20.50;;;;;4.34;100.00;103403.06;5007263;28;45294;-81
2023/12/18 00:33:31;;;;;;;;;19.50;19.00;;;;;4.99;100.00;103517.06;5009699;28;45475;-80
2023/12/18 00:36:10;;;;;;;;;26.25;22.50;;;;;4.68;100.00;103465.75;5028051;28;47011;-81
2023/12/18 00:38:57;;;;;;;;;30.50;23.00;;;;;4.24;100.00;103411.56;5008465;28;45477;-80
2023/12/18 00:41:31;;;;;;;;;26.00;20.50;;;;;4.92;100.00;103533.53;5033308;28;45353;-80
2023/12/18 00:44:23;;;;;;;;;;;;;;;;;;;;;
2023/12/18 00:47:03;;;;;;;;;26.00;23.75;;;;;4.18;100.00;103404.50;5020001;28;75199;-80
2023/12/18 00:49:46;;;;;;;;;26.50;24.50;;;;;4.67;100.00;103490.22;5024007;28;45210;-81
2023/12/18 00:52:12;;;;;;;;;29.00;24.00;;;;;4.90;100.00;103526.47;5005371;28;45240;-80
2023/12/18 00:54:41;;;;;;;;;26.50;23.50;;;;;4.19;100.00;103392.25;5006438;28;45305;-81
2023/12/18 00:57:23;;;;;;;;;29.50;23.50;;;;;4.83;100.00;103507.13;5005307;28;47864;-80
2023/12/18 01:02:59;;;;;;;;;24.50;21.25;;;;;4.55;100.00;103448.00;5002525;28;45831;-81
2023/12/18 01:05:48;;;;;;;;;21.50;19.25;;;;;4.26;100.00;103396.75;5021433;28;45550;-81
2023/12/18 01:08:26;;;;;;;;;24.50;18.00;;;;;4.61;100.00;103452.50;4996338;28;46409;-81
2023/12/18 01:11:24;;;;;;;;;;;;;;;;;;;;;
2023/12/18 01:16:52;;;;;;;;;25.25;21.75;;;;;4.41;100.00;103414.53;5018595;28;45672;-81
2023/12/18 01:19:26;;;;;;;;;27.25;22.75;;;;;4.40;100.00;103410.16;5003854;28;45706;-81
2023/12/18 01:22:00;;;;;;;;;19.25;19.25;;;;;4.43;100.00;103405.84;5016972;28;45388;-81
2023/12/18 01:24:29;;;;;;;;;27.75;21.00;;;;;4.27;100.00;103388.06;5004880;28;45509;-80
2023/12/18 01:27:30;;;;;;;;;22.25;21.00;;;;;4.67;100.00;103455.25;5018732;28;45298;-81
2023/12/18 01:29:50;;;;;;;;;20.75;18.50;;;;;4.75;100.00;103487.72;5018884;28;46486;-80
2023/12/18 01:32:30;;;;;;;;;22.50;20.50;;;;;4.65;100.00;103476.16;5006703;28;45444;-80
2023/12/18 01:35:07;;;;;;;;;11.75;7.50;;;;;4.10;100.00;103358.03;5026972;28;45392;-80
2023/12/18 01:37:41;;;;;;;;;22.00;19.00;;;;;4.53;100.00;103423.53;5008057;28;45412;-80
2023/12/18 01:40:19;;;;;;;;;18.75;18.75;;;;;4.79;100.00;103480.81;5010245;28;45766;-81
2023/12/18 01:42:52;;;;;;;;;22.25;18.00;;;;;4.15;100.00;103377.34;5024076;28;45852;-80
2023/12/18 01:45:28;;;;;;;;;22.25;19.00;;;;;4.66;100.00;103498.03;5014889;28;45406;-80
2023/12/18 01:47:54;;;;;;;;;20.50;17.00;;;;;4.70;100.00;103486.75;5022044;28;45785;-81
2023/12/18 01:50:20;;;;;;;;;30.00;22.50;;;;;4.65;100.00;103476.16;5024821;28;46180;-80
2023/12/18 01:52:46;;;;;;;;;21.50;19.75;;;;;4.50;100.00;103469.75;5005281;28;45327;-80
2023/12/18 01:55:13;;;;;;;;;22.50;17.75;;;;;4.26;100.00;103411.59;5006763;28;44759;-81
2023/12/18 01:57:40;;;;;;;;;25.25;22.75;;;;;4.64;100.00;103484.03;5022768;28;45505;-80
2023/12/18 02:00:07;;;;;;;;;20.25;18.50;;;;;4.67;100.00;103481.47;5004316;28;45471;-80
2023/12/18 02:02:35;;;;;;;;;19.25;16.75;;;;;4.65;100.00;103491.91;5021080;28;45400;-80
2023/12/18 02:05:00;;;;;;;;;16.25;15.00;;;;;4.44;100.00;103459.16;5016741;28;45382;-80
2023/12/18 02:07:27;;;;;;;;;22.75;20.75;;;;;4.43;100.00;103465.22;5017964;28;45397;-80
2023/12/18 02:09:52;;;;;;;;;18.75;16.00;;;;;4.57;100.00;103467.28;5012096;28;46021;-80
2023/12/18 02:12:18;;;;;;;;;17.75;17.50;;;;;4.45;100.00;103453.06;5002959;28;45292;-80
2023/12/18 02:14:43;;;;;;;;;25.75;16.75;;;;;4.62;100.00;103480.47;5021113;28;45391;-80
2023/12/18 02:17:11;;;;;;;;;20.25;20.25;;;;;3.90;100.00;103385.53;4996803;28;45291;-80
2023/12/18 02:19:44;;;;;;;;;21.75;19.00;;;;;3.95;100.00;103366.47;5020886;28;45396;-80
2023/12/18 02:22:14;;;;;;;;;20.25;18.25;;;;;4.00;100.00;103391.00;5009733;28;45477;-80
2023/12/18 02:24:39;;;;;;;;;22.50;18.50;;;;;4.22;100.00;103415.03;5004962;28;45391;-80
2023/12/18 02:27:05;;;;;;;;;21.75;19.25;;;;;4.58;100.00;103470.81;4996111;28;45295;-80
2023/12/18 02:29:31;;;;;;;;;23.50;17.25;;;;;4.55;100.00;103471.59;5012441;28;47288;-80
2023/12/18 02:31:57;;;;;;;;;19.75;19.25;;;;;4.56;100.00;103467.25;4981961;28;45366;-80
2023/12/18 02:34:22;;;;;;;;;28.25;20.00;;;;;4.33;100.00;103432.72;4996816;28;45557;-80
2023/12/18 02:36:49;;;;;;;;;18.50;18.50;;;;;4.51;100.00;103461.03;4999213;28;45331;-80
2023/12/18 02:39:14;;;;;;;;;19.75;17.25;;;;;4.46;100.00;103460.94;5000006;28;45778;-80
2023/12/18 02:41:39;;;;;;;;;20.75;18.25;;;;;4.26;100.00;103428.19;5007169;28;45467;-80
2023/12/18 02:44:05;;;;;;;;;21.25;18.25;;;;;4.54;100.00;103475.09;4994050;28;45335;-80
2023/12/18 02:46:30;;;;;;;;;19.75;19.50;;;;;4.47;100.00;103467.06;5000221;28;45378;-80
2023/12/18 02:48:55;;;;;;;;;21.75;19.75;;;;;4.43;100.00;103463.50;5000308;28;46835;-80
2023/12/18 02:51:21;;;;;;;;;17.25;14.50;;;;;4.40;100.00;103465.16;5000122;28;45422;-80
2023/12/18 02:53:46;;;;;;;;;18.75;15.75;;;;;4.44;100.00;103457.41;4997084;28;45494;-80
2023/12/18 02:56:13;;;;;;;;;23.75;21.75;;;;;4.06;100.00;103385.88;4998921;28;45600;-81
2023/12/18 02:58:38;;;;;;;;;24.25;21.75;;;;;4.54;100.00;103472.47;5002924;28;46354;-80
2023/12/18 03:01:03;;;;;;;;;24.50;20.00;;;;;4.51;100.00;103468.91;4997062;28;50127;-80
2023/12/18 03:03:28;;;;;;;;;27.00;24.50;;;;;4.50;100.00;103469.75;4997624;28;45477;-80
2023/12/18 03:05:54;;;;;;;;;20.75;19.25;;;;;4.33;100.00;103443.19;5001516;28;45541;-80
2023/12/18 03:08:19;;;;;;;;;19.00;17.25;;;;;4.50;100.00;103467.13;5005490;28;45542;-80
2023/12/18 03:10:45;;;;;;;;;22.75;20.50;;;;;4.31;100.00;103436.16;5003656;28;45440;-80
2023/12/18 03:13:10;;;;;;;;;24.75;22.50;;;;;4.50;100.00;103465.41;5001443;28;45363;-80
2023/12/18 03:15:35;;;;;;;;;20.00;19.25;;;;;4.51;100.00;103474.16;4996846;28;45601;-80
2023/12/18 03:18:02;;;;;;;;;26.50;20.75;;;;;4.40;100.00;103462.53;4980414;28;48682;-80
2023/12/18 03:20:28;;;;;;;;;24.25;21.00;;;;;4.50;100.00;103474.97;5003277;28;45270;-80
2023/12/18 03:22:53;;;;;;;;;24.75;22.25;;;;;4.29;100.00;103462.31;5000327;28;45299;-80
2023/12/18 03:25:19;;;;;;;;;19.25;19.25;;;;;4.41;100.00;103474.81;4998610;28;45280;-80
2023/12/18 03:27:44;;;;;;;;;21.25;19.00;;;;;4.20;100.00;103430.69;5000216;28;46919;-80
2023/12/18 03:30:09;;;;;;;;;29.50;20.00;;;;;4.36;100.00;103456.34;5002726;28;53876;-80
2023/12/18 03:32:35;;;;;;;;;26.25;23.00;;;;;4.27;100.00;103442.19;5015689;28;45468;-81
2023/12/18 03:35:00;;;;;;;;;24.25;22.75;;;;;4.27;100.00;103436.94;5003836;28;45346;-80
2023/12/18 03:37:26;;;;;;;;;23.75;22.25;;;;;4.43;100.00;103467.84;5003959;28;46577;-80
2023/12/18 03:39:51;;;;;;;;;30.00;23.50;;;;;4.32;100.00;103441.41;5001892;28;45378;-80
2023/12/18 03:42:16;;;;;;;;;21.00;18.50;;;;;4.24;100.00;103429.03;5002152;28;45480;-80
2023/12/18 03:44:43;;;;;;;;;31.50;23.25;;;;;4.45;100.00;103460.91;4995633;28;45288;-80
2023/12/18 03:47:09;;;;;;;;;31.75;26.75;;;;;4.43;100.00;103470.47;5000975;28;45757;-80
2023/12/18 03:49:34;;;;;;;;;19.50;17.50;;;;;4.29;100.00;103440.50;5001610;28;45273;-80
2023/12/18 03:52:00;;;;;;;;;26.50;22.75;;;;;4.37;100.00;103465.09;5016999;28;45532;-80
2023/12/18 03:54:25;;;;;;;;;22.00;20.00;;;;;4.19;100.00;103431.53;5001103;28;45310;-80
2023/12/18 03:56:50;;;;;;;;;22.75;21.00;;;;;4.38;100.00;103470.38;5005253;28;51487;-80
2023/12/18 03:59:16;;;;;;;;;29.75;24.25;;;;;4.43;100.00;103471.34;5001288;28;45389;-80
2023/12/18 04:01:41;;;;;;;;;32.75;24.00;;;;;4.34;100.00;103450.22;4998643;28;45358;-81
2023/12/18 04:04:06;;;;;;;;;25.00;17.00;;;;;4.32;100.00;103451.91;5001378;28;50624;-80
2023/12/18 04:06:32;;;;;;;;;30.25;25.00;;;;;4.42;100.00;103461.72;5007929;28;47896;-80
2023/12/18 04:08:57;;;;;;;;;26.00;20.75;;;;;4.31;100.00;103447.53;4994721;28;45332;-80
2023/12/18 04:11:22;;;;;;;;;22.00;19.00;;;;;4.47;100.00;103480.16;5002683;28;45914;-80
2023/12/18 04:13:50;;;;;;;;;23.00;14.50;;;;;4.26;100.00;103437.78;4996132;28;45424;-80
2023/12/18 04:16:15;;;;;;;;;23.50;21.25;;;;;4.50;100.00;103459.25;4995417;28;45456;-80
2023/12/18 04:18:40;;;;;;;;;23.50;21.75;;;;;4.46;100.00;103457.44;5000783;28;45461;-80
2023/12/18 04:21:05;;;;;;;;;35.00;24.00;;;;;4.51;100.00;103467.16;5005630;28;45468;-80
2023/12/18 04:23:31;;;;;;;;;20.00;18.50;;;;;4.47;100.00;103469.69;4998603;28;45477;-80
2023/12/18 04:25:56;;;;;;;;;22.25;18.00;;;;;4.48;100.00;103464.47;4995524;28;45386;-80
2023/12/18 04:28:21;;;;;;;;;30.75;24.75;;;;;4.46;100.00;103465.28;4994838;28;45443;-80
2023/12/18 04:30:47;;;;;;;;;22.75;22.25;;;;;4.44;100.00;103464.38;5005146;28;45412;-80
2023/12/18 04:33:12;;;;;;;;;19.25;13.50;;;;;4.45;100.00;103467.03;5000710;28;45441;-80
2023/12/18 04:35:37;;;;;;;;;27.50;20.75;;;;;4.35;100.00;103454.56;5001950;28;45391;-80
2023/12/18 04:38:03;;;;;;;;;30.75;24.50;;;;;4.29;100.00;103462.31;5005976;28;45471;-81
2023/12/18 04:40:28;;;;;;;;;29.00;20.00;;;;;4.34;100.00;103468.56;4995991;28;45303;-80
2023/12/18 04:42:54;;;;;;;;;20.00;19.50;;;;;4.22;100.00;103442.97;4997793;28;45330;-80
2023/12/18 04:45:22;;;;;;;;;27.75;25.00;;;;;4.02;100.00;103419.84;5013367;28;46555;-80
2023/12/18 04:47:47;;;;;;;;;27.00;21.75;;;;;4.29;100.00;103464.94;5001478;28;45262;-80
2023/12/18 04:50:13;;;;;;;;;23.00;21.25;;;;;4.17;100.00;103443.72;4993417;28;45240;-80
2023/12/18 04:52:39;;;;;;;;;27.25;20.00;;;;;4.31;100.00;103462.34;5001180;28;45598;-80
2023/12/18 04:55:05;;;;;;;;;30.50;20.50;;;;;4.20;100.00;103451.66;5000106;28;45458;-80
2023/12/18 04:57:31;;;;;;;;;18.75;15.00;;;;;4.07;100.00;103431.28;5000182;28;45448;-80
2023/12/18 04:59:56;;;;;;;;;25.25;21.00;;;;;4.26;100.00;103471.84;5001801;28;45405;-80
2023/12/18 05:02:22;;;;;;;;;29.50;22.00;;;;;4.14;100.00;103447.16;5002229;28;48505;-80
2023/12/18 05:04:47;;;;;;;;;30.25;23.75;;;;;4.17;100.00;103444.63;5009867;28;45451;-80
2023/12/18 05:07:12;;;;;;;;;29.50;25.50;;;;;4.22;100.00;103445.59;5001512;28;45409;-80
2023/12/18 05:09:39;;;;;;;;;32.75;25.00;;;;;4.29;100.00;103466.69;5005328;28;45358;-81
2023/12/18 05:12:04;;;;;;;;;23.75;22.00;;;;;4.26;100.00;103459.63;4999005;28;45339;-80
2023/12/18 05:14:30;;;;;;;;;22.50;20.75;;;;;3.92;100.00;103395.19;5003136;28;45411;-81
2023/12/18 05:16:57;;;;;;;;;24.25;22.50;;;;;4.13;100.00;103426.16;4988607;28;46219;-80
2023/12/18 05:19:23;;;;;;;;;26.25;20.75;;;;;4.29;100.00;103461.47;5003600;28;45325;-80
2023/12/18 05:21:48;;;;;;;;;26.50;21.50;;;;;4.06;100.00;103414.69;5003207;28;50524;-80
2023/12/18 05:24:14;;;;;;;;;26.00;21.75;;;;;4.24;100.00;103444.75;4996215;28;46486;-80
2023/12/18 05:26:39;;;;;;;;;23.75;18.25;;;;;4.18;100.00;103435.91;5016080;28;45373;-80
2023/12/18 05:29:04;;;;;;;;;29.25;23.50;;;;;4.07;100.00;103412.94;4999738;28;45514;-79
2023/12/18 05:31:30;;;;;;;;;28.25;19.50;;;;;4.17;100.00;103434.13;5020731;28;45420;-80
2023/12/18 05:33:55;;;;;;;;;29.50;19.25;;;;;4.10;100.00;103423.50;5022374;28;45528;-80
2023/12/18 05:36:20;;;;;;;;;19.25;19.25;;;;;4.06;100.00;103440.88;5004279;28;45546;-80
2023/12/18 05:38:45;;;;;;;;;24.00;19.00;;;;;4.22;100.00;103453.44;5005997;28;55624;-80
2023/12/18 05:41:11;;;;;;;;;22.00;19.00;;;;;4.04;100.00;103439.06;5004434;28;45379;-81
2023/12/18 05:43:36;;;;;;;;;26.25;17.25;;;;;4.23;100.00;103459.56;5003936;28;47037;-80
2023/12/18 05:46:02;;;;;;;;;18.75;12.50;;;;;3.96;100.00;103422.34;5013497;28;45550;-80
2023/12/18 05:48:27;;;;;;;;;21.25;17.00;;;;;4.02;100.00;103432.94;5024467;28;45506;-80
2023/12/18 05:50:52;;;;;;;;;21.00;17.75;;;;;4.17;100.00;103454.19;5004788;28;54386;-80
2023/12/18 05:53:17;;;;;;;;;20.25;18.00;;;;;4.22;100.00;103449.97;4997065;28;47009;-80
2023/12/18 05:55:43;;;;;;;;;25.50;23.00;;;;;4.21;100.00;103448.19;5010008;28;52322;-80
2023/12/18 05:58:08;;;;;;;;;22.50;19.50;;;;;4.12;100.00;103433.13;5025893;28;46016;-80
2023/12/18 06:00:33;;;;;;;;;22.25;20.00;;;;;4.13;100.00;103442.78;5013795;28;45581;-80
2023/12/18 06:03:37;;;;;;;;;23.25;17.00;;;;;3.94;100.00;103401.34;5006900;28;47583;-80
2023/12/18 06:06:06;;;;;;;;;21.75;17.00;;;;;4.00;100.00;103417.19;5004734;28;45488;-80
2023/12/18 06:08:32;;;;;;;;;22.75;20.75;;;;;3.91;100.00;103405.63;5004046;28;45263;-80
2023/12/18 06:10:57;;;;;;;;;25.25;21.00;;;;;3.81;100.00;103374.84;5022494;28;45239;-80
2023/12/18 06:13:22;;;;;;;;;26.75;24.00;;;;;3.78;100.00;103374.78;5002322;28;47518;-80
2023/12/18 06:15:48;;;;;;;;;21.00;15.25;;;;;4.12;100.00;103430.53;5008865;28;45270;-80
2023/12/18 06:18:13;;;;;;;;;24.25;22.00;;;;;3.85;100.00;103401.16;5020397;28;45262;-80
2023/12/18 06:20:46;;;;;;;;;25.75;21.00;;;;;3.90;100.00;103412.59;5024265;28;45402;-80
2023/12/18 06:23:12;;;;;;;;;22.50;20.00;;;;;3.80;100.00;103381.81;5008497;28;45884;-80
2023/12/18 06:25:37;;;;;;;;;24.00;22.00;;;;;4.24;100.00;103460.47;5031860;28;45305;-80
2023/12/18 06:28:14;;;;;;;;;25.00;21.00;;;;;3.81;100.00;103408.88;5021245;28;45499;-80
2023/12/18 06:30:39;;;;;;;;;28.25;22.75;;;;;3.68;100.00;103378.94;5004806;28;45424;-80
2023/12/18 06:33:04;;;;;;;;;35.50;23.25;;;;;3.92;100.00;103410.91;5020220;28;45450;-80
2023/12/18 06:35:30;;;;;;;;;20.00;15.50;;;;;4.14;100.00;103459.38;5021706;28;45410;-80
2023/12/18 06:37:55;;;;;;;;;22.50;19.75;;;;;3.84;100.00;103396.75;5009327;28;45532;-80
2023/12/18 06:40:20;;;;;;;;;27.25;24.50;;;;;4.09;100.00;103458.41;5022066;28;46237;-80
2023/12/18 06:42:46;;;;;;;;;20.50;20.00;;;;;4.02;100.00;103462.63;5003943;28;46350;-80
2023/12/18 06:45:11;;;;;;;;;26.25;24.00;;;;;4.12;100.00;103474.19;5004211;28;45413;-80
2023/12/18 06:47:36;;;;;;;;;28.00;22.00;;;;;4.00;100.00;103452.94;5011167;28;45544;-81
2023/12/18 06:50:03;;;;;;;;;28.25;26.50;;;;;4.04;100.00;103463.53;5026232;28;45408;-83
2023/12/18 06:52:28;;;;;;;;;26.75;23.25;;;;;4.05;100.00;103459.19;5007340;28;46651;-83
2023/12/18 06:54:53;;;;;;;;;28.50;19.75;;;;;4.01;100.00;103460.84;5021042;28;48061;-83
2023/12/18 06:57:19;;;;;;;;;22.75;20.50;;;;;4.09;100.00;103458.41;5014042;28;45867;-80
2023/12/18 06:59:44;;;;;;;;;29.75;18.00;;;;;4.10;100.00;103458.44;5020015;28;45707;-80
2023/12/18 07:05:53;;;;;;;;;26.25;23.25;;;;;3.54;100.00;103376.00;4929745;28;45424;-80
2023/12/18 07:08:18;;;;;;;;;37.50;26.25;;;;;3.47;100.00;103365.38;4949076;28;45586;-81
2023/12/18 07:10:47;;;;;;;;;30.75;24.50;;;;;3.35;100.00;103367.69;5020813;28;45494;-81
2023/12/18 07:14:09;;;;;;;;;26.00;25.50;;;;;3.32;100.00;103365.91;5009622;28;45490;-79
2023/12/18 07:16:35;;;;;;;;;32.00;24.25;;;;;3.78;100.00;103435.00;5014085;28;45362;-84
2023/12/18 07:30:15;;;;;;;;;26.75;21.50;;;;;3.10;100.00;103397.63;4977183;28;44883;-84
2023/12/18 07:33:20;;;;;;;;;15.25;11.00;;;;;3.67;100.00;103487.97;4885117;29;44731;-84
2023/12/18 07:36:40;;;;;;;;;;;;;;;;;;;;;
2023/12/18 07:39:21;;;;;;;;;16.75;14.00;;;;;3.32;100.00;103454.81;4953320;28;74907;-84
2023/12/18 07:42:08;;;;;;;;;22.75;20.50;;;;;3.00;100.00;103413.91;4964778;28;44823;-85
2023/12/18 07:44:34;;;;;;;;;16.75;13.50;;;;;3.42;100.00;103471.63;5015050;28;45401;-84
2023/12/18 07:47:11;;;;;;;;;23.75;17.50;;;;;3.19;100.00;103426.59;5013402;28;45588;-84
2023/12/18 07:49:36;;;;;;;;;19.50;19.50;;;;;3.34;100.00;103481.91;5012554;28;45541;-84
2023/12/18 07:52:19;;;;;;;;;27.75;20.50;;;;;3.50;100.00;103535.50;5010561;28;45456;-83
2023/12/18 07:55:06;;;;;;;;;16.25;16.25;;;;;2.81;100.00;103440.41;5015066;28;44859;-83
2023/12/18 07:57:59;;;;;;;;;21.00;17.50;;;;;2.70;100.00;103426.16;5005833;28;45440;-84
2023/12/18 08:01:08;;;;;;;;;23.00;19.50;;;;;2.62;100.00;103445.13;5011615;28;47156;-83
2023/12/18 08:03:43;;;;;;;;;20.75;20.75;;;;;2.41;100.00;103392.31;5011932;28;44966;-84
2023/12/18 08:06:09;;;;;;;;;13.25;12.25;;;;;2.37;100.00;103405.22;5015216;28;45461;-84
2023/12/18 08:08:35;;;;;;;;;20.00;16.00;;;;;2.53;100.00;103455.31;5012293;28;45432;-83
2023/12/18 08:11:30;;;;;;;;;25.50;21.25;;;;;2.99;100.00;103530.66;5010898;28;46956;-83
2023/12/18 08:15:00;;;;;;;;;;;;;;;;;;;;;
2023/12/18 08:17:08;;;;;;;;;18.25;18.25;;;;;2.71;100.00;103477.59;5006348;28;45518;-83
2023/12/18 08:20:37;;;;;;;;;18.50;14.50;;;;;2.32;100.00;103412.06;5015055;28;45470;-83
2023/12/18 08:23:52;;;;;;;;;;;;;;;;;;;;;
2023/12/18 08:26:31;;;;;;;;;20.00;17.25;;;;;3.05;100.00;103541.28;4977807;28;71278;-82
2023/12/18 08:32:40;;;;;;;;;23.50;18.00;;;;;2.51;100.00;103412.63;4993983;28;45526;-83
2023/12/18 08:35:41;;;;;;;;;15.50;15.25;;;;;2.38;100.00;103405.28;5010023;28;46263;-83
2023/12/18 08:38:06;;;;;;;;;30.00;21.00;;;;;2.58;100.00;103440.69;5008875;28;45312;-83
2023/12/18 08:40:48;;;;;;;;;20.50;15.25;;;;;3.04;100.00;103513.34;5016154;28;45628;-83
2023/12/18 08:43:14;;;;;;;;;19.50;18.50;;;;;2.46;100.00;103414.19;5022850;28;44743;-83
2023/12/18 08:45:39;;;;;;;;;18.50;17.00;;;;;3.02;100.00;103495.88;5019205;28;45345;-83
2023/12/18 08:48:05;;;;;;;;;21.75;18.25;;;;;2.93;100.00;103498.22;5018200;28;44880;-83
2023/12/18 08:50:31;;;;;;;;;19.25;18.25;;;;;2.93;100.00;103493.91;5011641;28;45466;-83
2023/12/18 08:53:02;;;;;;;;;22.75;19.50;;;;;2.94;100.00;103486.94;5014336;28;45556;-82
2023/12/18 08:55:27;;;;;;;;;25.50;20.50;;;;;2.99;100.00;103494.06;5007633;28;47054;-83
2023/12/18 08:57:53;;;;;;;;;18.25;15.50;;;;;3.17;100.00;103514.59;4998414;28;45270;-83
2023/12/18 09:00:22;;;;;;;;;19.50;17.50;;;;;3.14;100.00;103506.66;5014631;28;45632;-82
2023/12/18 09:02:48;;;;;;;;;22.75;16.00;;;;;2.60;100.00;103425.03;5010017;28;45491;-83
2023/12/18 09:05:23;;;;;;;;;12.75;10.25;;;;;2.83;100.00;103470.06;5011201;28;45435;-83
2023/12/18 09:07:49;;;;;;;;;19.25;16.00;;;;;2.85;100.00;103468.38;5001399;28;45262;-79
2023/12/18 09:10:17;;;;;;;;;15.50;15.00;;;;;3.08;100.00;103493.41;5014655;28;45427;-84
2023/12/18 09:12:43;;;;;;;;;14.00;12.00;;;;;3.07;100.00;103496.88;5008910;28;45353;-82
2023/12/18 09:15:08;;;;;;;;;17.50;14.25;;;;;3.11;100.00;103509.16;5015671;28;46184;-83
2023/12/18 09:17:34;;;;;;;;;18.25;13.50;;;;;3.01;100.00;103478.44;5007004;28;45391;-83
2023/12/18 09:20:00;;;;;;;;;20.25;15.00;;;;;2.84;100.00;103471.84;5010452;28;45282;-84
2023/12/18 09:22:25;;;;;;;;;14.00;12.00;;;;;2.98;100.00;103488.78;5015829;28;45912;-83
2023/12/18 09:24:50;;;;;;;;;19.00;14.00;;;;;3.02;100.00;103493.25;5015969;28;47505;-83
2023/12/18 09:27:16;;;;;;;;;21.50;14.75;;;;;2.90;100.00;103483.38;5024703;28;44721;-84
2023/12/18 09:29:41;;;;;;;;;15.75;13.00;;;;;3.04;100.00;103522.94;5018795;28;45361;-83
2023/12/18 09:32:07;;;;;;;;;22.50;17.00;;;;;3.02;100.00;103512.44;5029139;28;45348;-83
2023/12/18 09:34:33;;;;;;;;;21.00;17.25;;;;;2.28;100.00;103384.97;5021307;28;46210;-83
2023/12/18 09:36:58;;;;;;;;;18.00;14.50;;;;;2.66;100.00;103443.47;5022495;28;45330;-83
2023/12/18 09:39:23;;;;;;;;;17.75;17.00;;;;;2.94;100.00;103505.25;5008472;28;45429;-84
2023/12/18 09:41:49;;;;;;;;;17.25;17.25;;;;;2.85;100.00;103479.72;5006007;28;45402;-80
2023/12/18 09:44:14;;;;;;;;;17.75;15.00;;;;;2.88;100.00;103498.09;5033284;28;46411;-81
2023/12/18 09:46:40;;;;;;;;;26.00;17.50;;;;;2.51;100.00;103448.28;5001161;28;45227;-81
2023/12/18 09:49:40;;;;;;;;;19.00;15.00;;;;;3.00;100.00;103527.22;5008068;28;45279;-81
2023/12/18 09:52:08;;;;;;;;;20.75;17.75;;;;;3.06;100.00;103521.25;5007144;28;45307;-81
2023/12/18 09:54:34;;;;;;;;;22.00;16.00;;;;;2.76;100.00;103463.78;5029401;28;47697;-81
2023/12/18 09:57:02;;;;;;;;;22.25;20.00;;;;;2.50;100.00;103417.78;4995809;28;45286;-81
2023/12/18 10:00:11;;;;;;;;;13.25;12.50;;;;;2.40;100.00;103407.91;5018604;28;45413;-81
2023/12/18 10:02:58;;;;;;;;;17.50;17.50;;;;;2.46;100.00;103434.19;4991444;28;45240;-81
2023/12/18 10:05:23;;;;;;;;;17.75;14.75;;;;;3.04;100.00;103513.34;4998872;28;46978;-81
2023/12/18 10:09:18;;;;;;;;;17.25;14.25;;;;;2.40;100.00;103424.47;5012869;28;45470;-81
2023/12/18 10:11:49;;;;;;;;;22.25;20.00;;;;;2.40;100.00;103410.53;5025209;28;45579;-81
2023/12/18 10:14:37;;;;;;;;;19.25;16.00;;;;;2.55;100.00;103431.88;5008928;28;45367;-80
2023/12/18 10:17:25;;;;;;;;;17.00;16.75;;;;;2.32;100.00;103385.94;5037492;28;45235;-81
2023/12/18 10:19:51;;;;;;;;;20.75;18.75;;;;;2.79;100.00;103463.88;5029195;28;45494;-81
2023/12/18 10:22:16;;;;;;;;;23.25;22.00;;;;;2.59;100.00;103437.19;5036779;28;44809;-81
2023/12/18 10:24:43;;;;;;;;;20.00;17.25;;;;;2.98;100.00;103486.16;5019558;28;45456;-81
2023/12/18 10:27:09;;;;;;;;;22.75;18.25;;;;;3.03;100.00;103500.25;5032564;28;45496;-81
2023/12/18 10:29:34;;;;;;;;;24.50;19.00;;;;;3.01;100.00;103501.97;5014213;28;45477;-80
2023/12/18 10:32:07;;;;;;;;;21.00;19.50;;;;;2.98;100.00;103496.63;5013874;28;45385;-81
2023/12/18 10:34:36;;;;;;;;;17.75;15.25;;;;;2.82;100.00;103495.31;5004093;28;45469;-81
2023/12/18 10:37:19;;;;;;;;;20.50;18.75;;;;;2.84;100.00;103484.91;5016327;28;48003;-82
2023/12/18 10:39:49;;;;;;;;;20.75;16.25;;;;;2.37;100.00;103411.34;4998047;28;45320;-81
2023/12/18 10:42:30;;;;;;;;;23.50;18.50;;;;;2.48;100.00;103445.59;5008548;28;45371;-82
2023/12/18 10:44:58;;;;;;;;;19.00;14.75;;;;;2.79;100.00;103478.66;5021754;28;45459;-81
2023/12/18 10:47:54;;;;;;;;;22.25;16.75;;;;;2.53;100.00;103451.81;5014221;28;45497;-81
2023/12/18 10:50:38;;;;;;;;;26.50;17.25;;;;;2.15;100.00;103397.63;5019251;28;45327;-81
2023/12/18 10:53:50;;;;;;;;;18.00;17.00;;;;;2.15;100.00;103400.25;5016364;28;45314;-81
2023/12/18 10:56:19;;;;;;;;;24.25;20.25;;;;;2.29;100.00;103410.22;5018592;28;45302;-81
2023/12/18 10:58:46;;;;;;;;;21.25;18.00;;;;;2.80;100.00;103512.69;5032463;28;46530;-81
2023/12/18 11:01:15;;;;;;;;;18.25;14.00;;;;;2.83;100.00;103499.72;5028911;28;45388;-81
2023/12/18 11:03:46;;;;;;;;;20.25;14.00;;;;;2.70;100.00;103499.31;5011764;28;45498;-81
2023/12/18 11:06:26;;;;;;;;;22.75;15.50;;;;;2.11;100.00;103401.88;5031514;28;45533;-81
2023/12/18 11:08:51;;;;;;;;;20.00;17.25;;;;;2.53;100.00;103470.09;5032780;28;45536;-81
2023/12/18 11:11:19;;;;;;;;;17.75;15.50;;;;;2.46;100.00;103469.03;5013737;28;45231;-80
2023/12/18 11:14:02;;;;;;;;;25.00;17.00;;;;;2.49;100.00;103512.66;5015146;28;45347;-80
2023/12/18 11:16:58;;;;;;;;;24.25;21.00;;;;;2.45;100.00;103472.53;5032525;28;45267;-80
2023/12/18 11:20:03;;;;;;;;;21.25;18.50;;;;;2.13;100.00;103443.69;5031612;28;46689;-80
2023/12/18 11:22:52;;;;;;;;;20.75;17.75;;;;;1.92;100.00;103402.19;5012929;28;45358;-82
2023/12/18 11:25:18;;;;;;;;;21.50;14.25;;;;;2.66;100.00;103516.63;5017227;28;45829;-81
2023/12/18 11:27:44;;;;;;;;;20.75;19.75;;;;;2.30;100.00;103426.78;5009280;28;45767;-81
2023/12/18 11:30:46;;;;;;;;;26.00;22.00;;;;;2.83;100.00;103506.66;5009163;28;46684;-82
2023/12/18 11:33:14;;;;;;;;;25.75;19.25;;;;;2.57;100.00;103482.41;5005151;28;45589;-82
2023/12/18 11:35:45;;;;;;;;;19.50;16.00;;;;;2.43;100.00;103437.63;5010401;28;45453;-82
2023/12/18 11:38:36;;;;;;;;;22.00;20.00;;;;;2.15;100.00;103393.31;5007102;28;45612;-81
2023/12/18 11:41:01;;;;;;;;;22.75;18.50;;;;;2.13;100.00;103388.88;5006480;28;45661;-81
2023/12/18 11:43:56;;;;;;;;;29.25;21.00;;;;;2.89;100.00;103502.50;5006533;28;45432;-82
2023/12/18 11:46:24;;;;;;;;;17.50;15.00;;;;;2.82;100.00;103481.38;4993721;28;45429;-82
2023/12/18 11:48:49;;;;;;;;;25.00;18.00;;;;;2.77;100.00;103456.84;5037064;28;45334;-82
2023/12/18 11:51:17;;;;;;;;;17.75;17.75;;;;;2.57;100.00;103415.38;5006957;28;53372;-81
2023/12/18 11:54:12;;;;;;;;;24.50;17.00;;;;;2.30;100.00;103359.78;5026837;28;45532;-82
2023/12/18 11:56:58;;;;;;;;;;;;;;;;;;;;;
2023/12/18 11:59:43;;;;;;;;;12.00;12.00;;;;;2.36;100.00;103374.72;5022839;28;71392;-82
2023/12/18 12:02:16;;;;;;;;;15.50;11.50;;;;;2.43;100.00;103347.94;5009117;28;45632;-82
2023/12/18 12:04:55;;;;;;;;;13.00;13.00;;;;;2.46;100.00;103343.69;5012428;28;45556;-82
2023/12/18 12:07:20;;;;;;;;;15.50;14.50;;;;;2.93;100.00;103406.75;5022368;28;45444;-82
2023/12/18 12:09:57;;;;;;;;;14.50;11.00;;;;;2.68;100.00;103344.25;5007623;28;45433;-82
2023/12/18 12:12:25;;;;;;;;;17.00;13.75;;;;;3.08;100.00;103392.34;5008574;28;47440;-82